createdAt,value
2019-03-20T00:00:42.283Z,102348.00
2019-03-20T00:03:11.849Z,102344.27
2019-03-20T00:05:41.272Z,102348.61
2019-03-20T00:08:10.743Z,102355.37
2019-03-20T00:10:40.165Z,102351.13
2019-03-20T00:13:09.770Z,102356.80
2019-03-20T00:15:39.213Z,102356.08
2019-03-20T00:18:08.784Z,102357.88
2019-03-20T00:20:38.288Z,102357.86
2019-03-20T00:23:07.909Z,102357.75
2019-03-20T00:25:37.744Z,102351.38
2019-03-20T00:28:07.119Z,102360.02
2019-03-20T00:30:36.584Z,102365.19
2019-03-20T00:33:06.032Z,102359.39
2019-03-20T00:35:35.495Z,102359.50
2019-03-20T00:38:04.992Z,102355.65
2019-03-20T00:40:34.429Z,102352.52
2019-03-20T00:43:03.931Z,102350.96
2019-03-20T00:45:33.370Z,102352.28
2019-03-20T00:48:02.754Z,102348.44
2019-03-20T00:50:32.238Z,102353.72
2019-03-20T00:53:01.732Z,102351.69
2019-03-20T00:55:31.136Z,102344.70
2019-03-20T00:58:00.760Z,102346.51
2019-03-20T01:00:30.183Z,102347.84
2019-03-20T01:02:59.727Z,102352.55
2019-03-20T01:05:29.283Z,102348.72
2019-03-20T01:07:58.871Z,102348.12
2019-03-20T01:10:28.356Z,102347.89
2019-03-20T01:12:57.789Z,102346.81
2019-03-20T01:15:27.396Z,102347.16
2019-03-20T01:17:56.998Z,102345.95
2019-03-20T01:20:26.721Z,102344.25
2019-03-20T01:22:56.281Z,102348.12
2019-03-20T01:25:25.823Z,102341.84
2019-03-20T01:27:55.507Z,102344.41
2019-03-20T01:30:33.353Z,102346.10
2019-03-20T01:33:04.033Z,102345.23
2019-03-20T01:35:33.426Z,102342.92
2019-03-20T01:38:02.832Z,102340.04
2019-03-20T01:40:32.302Z,102342.69
2019-03-20T01:43:01.963Z,102344.48
2019-03-20T01:45:31.584Z,102353.84
2019-03-20T01:48:01.163Z,102349.15
2019-03-20T01:50:30.611Z,102358.91
2019-03-20T01:53:00.311Z,102354.70
2019-03-20T01:55:29.769Z,102351.85
2019-03-20T01:57:59.475Z,102346.92
2019-03-20T02:00:29.147Z,102348.00
2019-03-20T02:02:58.605Z,102346.80
2019-03-20T02:05:35.977Z,102350.06
2019-03-20T02:07:59.374Z,102347.16
2019-03-20T02:10:28.740Z,102348.23
2019-03-20T02:12:58.899Z,102345.33
2019-03-20T02:15:38.140Z,102339.06
2019-03-20T02:17:59.830Z,102339.17
2019-03-20T02:20:29.328Z,102342.31
2019-03-20T02:22:58.843Z,102340.73
2019-03-20T02:25:28.243Z,102343.89
2019-03-20T02:27:57.691Z,102349.44
2019-03-20T02:30:27.325Z,102345.95
2019-03-20T02:32:56.761Z,102352.09
2019-03-20T02:35:26.130Z,102344.76
2019-03-20T02:37:55.685Z,102345.35
2019-03-20T02:40:25.101Z,102342.70
2019-03-20T02:42:54.513Z,102344.63
2019-03-20T02:45:23.880Z,102346.21
2019-03-20T02:47:53.237Z,102342.70
2019-03-20T02:50:22.754Z,102345.14
2019-03-20T02:52:52.204Z,102341.39
2019-03-20T02:55:21.623Z,102338.27
2019-03-20T02:57:51.131Z,102338.01
2019-03-20T03:00:20.723Z,102337.04
2019-03-20T03:02:50.259Z,102337.65
2019-03-20T03:05:20.097Z,102346.46
2019-03-20T03:07:49.613Z,102341.27
2019-03-20T03:10:19.377Z,102346.78
2019-03-20T03:12:48.779Z,102356.40
2019-03-20T03:15:18.264Z,102350.27
2019-03-20T03:17:47.661Z,102356.52
2019-03-20T03:20:17.105Z,102353.61
2019-03-20T03:22:46.606Z,102355.63
2019-03-20T03:25:16.214Z,102346.50
2019-03-20T03:27:45.763Z,102352.41
2019-03-20T03:30:15.235Z,102364.58
2019-03-20T03:32:44.786Z,102358.72
2019-03-20T03:35:18.013Z,102360.77
2019-03-20T03:37:45.707Z,102356.31
2019-03-20T03:40:15.415Z,102358.93
2019-03-20T03:42:45.122Z,102356.27
2019-03-20T03:45:14.638Z,102354.97
2019-03-20T03:47:44.124Z,102352.94
2019-03-20T03:50:13.952Z,102349.19
2019-03-20T03:52:43.424Z,102348.34
2019-03-20T03:55:12.930Z,102349.79
2019-03-20T03:57:42.289Z,102350.25
2019-03-20T04:00:13.441Z,102351.80
2019-03-20T04:02:43.108Z,102349.07
2019-03-20T04:05:12.646Z,102358.06
2019-03-20T04:07:42.125Z,102362.78
2019-03-20T04:10:12.239Z,102353.75
2019-03-20T04:12:43.699Z,102350.39
2019-03-20T04:15:14.052Z,102343.16
2019-03-20T04:17:43.624Z,102349.64
2019-03-20T04:20:13.723Z,102345.20
2019-03-20T04:22:43.084Z,102345.22
2019-03-20T04:25:12.913Z,102347.75
2019-03-20T04:27:42.284Z,102351.80
2019-03-20T04:30:18.349Z,102349.64
2019-03-20T04:32:48.081Z,102347.22
2019-03-20T04:35:17.622Z,102351.19
2019-03-20T04:37:47.276Z,102345.45
2019-03-20T04:40:16.903Z,102346.88
2019-03-20T04:42:46.296Z,102346.54
2019-03-20T04:45:15.948Z,102347.52
2019-03-20T04:47:45.517Z,102346.08
2019-03-20T04:50:14.954Z,102346.80
2019-03-20T04:52:44.465Z,102351.86
2019-03-20T04:55:14.074Z,102348.61
2019-03-20T04:57:45.583Z,102357.84
2019-03-20T05:00:15.644Z,102354.22
2019-03-20T05:02:45.189Z,102350.96
2019-03-20T05:05:14.663Z,102355.04
2019-03-20T05:07:44.250Z,102353.80
2019-03-20T05:10:14.000Z,102363.62
2019-03-20T05:12:43.455Z,102360.98
2019-03-20T05:15:12.960Z,102363.83
2019-03-20T05:17:42.507Z,102373.05
2019-03-20T05:20:12.863Z,102374.37
2019-03-20T05:22:42.349Z,102385.34
2019-03-20T05:25:11.940Z,102386.77
2019-03-20T05:27:41.486Z,102384.12
2019-03-20T05:30:12.330Z,102378.70
2019-03-20T05:32:42.069Z,102385.07
2019-03-20T05:35:11.649Z,102381.70
2019-03-20T05:37:41.219Z,102383.63
2019-03-20T05:40:11.892Z,102392.55
2019-03-20T05:42:41.485Z,102388.83
2019-03-20T05:45:13.067Z,102397.98
2019-03-20T05:47:42.628Z,102397.62
2019-03-20T05:50:13.003Z,102395.09
2019-03-20T05:52:42.578Z,102406.43
2019-03-20T05:55:12.190Z,102410.65
2019-03-20T05:57:41.837Z,102408.36
2019-03-20T06:00:13.401Z,102412.36
2019-03-20T06:02:43.017Z,102413.70
2019-03-20T06:05:12.664Z,102414.56
2019-03-20T06:07:42.188Z,102411.79
2019-03-20T06:10:12.967Z,102409.91
2019-03-20T06:12:43.102Z,102409.59
2019-03-20T06:15:12.617Z,102416.66
2019-03-20T06:17:42.148Z,102411.66
2019-03-20T06:20:11.583Z,102415.45
2019-03-20T06:22:41.071Z,102419.76
2019-03-20T06:25:10.604Z,102418.23
2019-03-20T06:27:40.173Z,102416.83
2019-03-20T06:30:12.516Z,102417.21
2019-03-20T06:32:41.987Z,102413.13
2019-03-20T06:35:11.519Z,102411.50
2019-03-20T06:37:41.068Z,102412.20
2019-03-20T06:40:11.009Z,102408.48
2019-03-20T06:42:40.527Z,102416.78
2019-03-20T06:45:10.810Z,102417.92
2019-03-20T06:47:40.249Z,102421.09
2019-03-20T06:50:12.476Z,102428.86
2019-03-20T06:52:41.986Z,102422.36
2019-03-20T06:55:11.598Z,102426.83
2019-03-20T06:57:41.101Z,102426.37
2019-03-20T07:00:48.058Z,102427.50
2019-03-20T07:03:24.940Z,102425.80
2019-03-20T07:06:12.070Z,102426.03
2019-03-20T07:09:05.774Z,102428.72
2019-03-20T07:11:39.200Z,102421.67
2019-03-20T07:14:08.806Z,102424.59
2019-03-20T07:16:38.206Z,102432.27
2019-03-20T07:19:07.732Z,102439.56
2019-03-20T07:21:37.194Z,102435.05
2019-03-20T07:24:06.702Z,102438.41
2019-03-20T07:26:36.258Z,102437.70
2019-03-20T07:29:05.914Z,102441.71
2019-03-20T07:31:35.407Z,102435.23
2019-03-20T07:34:04.935Z,102440.81
2019-03-20T07:36:34.628Z,102434.48
2019-03-20T07:39:06.122Z,102432.88
2019-03-20T07:41:35.663Z,102436.59
2019-03-20T07:44:05.224Z,102437.98
2019-03-20T07:46:34.703Z,102436.17
2019-03-20T07:49:04.270Z,102429.01
2019-03-20T07:51:33.785Z,102434.09
2019-03-20T07:54:03.291Z,102436.56
2019-03-20T07:56:32.732Z,102432.23
2019-03-20T07:59:02.275Z,102434.59
2019-03-20T08:01:31.762Z,102437.63
2019-03-20T08:04:01.245Z,102444.27
2019-03-20T08:06:30.763Z,102451.91
2019-03-20T08:09:00.345Z,102462.16
2019-03-20T08:11:29.914Z,102472.20
2019-03-20T08:13:59.341Z,102483.34
2019-03-20T08:16:28.769Z,102481.59
2019-03-20T08:18:58.168Z,102484.48
2019-03-20T08:21:27.689Z,102494.27
2019-03-20T08:23:57.244Z,102503.45
2019-03-20T08:26:26.780Z,102501.13
2019-03-20T08:28:56.200Z,102509.28
2019-03-20T08:31:25.707Z,102514.43
2019-03-20T08:33:55.309Z,102508.54
2019-03-20T08:36:24.694Z,102516.22
2019-03-20T08:38:54.209Z,102516.58
2019-03-20T08:41:23.597Z,102511.98
2019-03-20T08:43:53.093Z,102512.19
2019-03-20T08:46:22.503Z,102507.73
2019-03-20T08:48:51.927Z,102513.52
2019-03-20T08:51:21.527Z,102519.56
2019-03-20T08:53:51.187Z,102518.23
2019-03-20T08:56:20.738Z,102514.38
2019-03-20T08:58:50.211Z,102518.39
2019-03-20T09:01:28.086Z,102513.20
2019-03-20T09:03:51.024Z,102509.17
2019-03-20T09:06:20.451Z,102507.82
2019-03-20T09:08:50.016Z,102515.84
2019-03-20T09:11:19.416Z,102511.45
2019-03-20T09:13:48.899Z,102510.59
2019-03-20T09:16:18.384Z,102515.48
2019-03-20T09:18:47.849Z,102521.09
2019-03-20T09:21:17.288Z,102524.89
2019-03-20T09:23:46.771Z,102522.59
2019-03-20T09:26:16.305Z,102528.23
2019-03-20T09:28:45.865Z,102517.07
2019-03-20T09:31:15.368Z,102524.16
2019-03-20T09:33:44.856Z,102520.25
2019-03-20T09:36:14.288Z,102517.88
2019-03-20T09:38:44.037Z,102520.63
2019-03-20T09:41:13.537Z,102519.14
2019-03-20T09:43:43.058Z,102522.08
2019-03-20T09:46:12.545Z,102525.91
2019-03-20T09:48:41.968Z,102514.69
2019-03-20T09:51:11.434Z,102510.06
2019-03-20T09:53:41.051Z,102505.06
2019-03-20T09:56:10.611Z,102506.09
2019-03-20T09:58:40.022Z,102502.03
2019-03-20T10:01:09.514Z,102500.53
2019-03-20T10:03:39.683Z,102504.27
2019-03-20T10:06:09.091Z,102506.25
2019-03-20T10:08:38.687Z,102506.48
2019-03-20T10:11:08.094Z,102507.42
2019-03-20T10:13:37.696Z,102507.48
2019-03-20T10:16:07.162Z,102512.83
2019-03-20T10:18:36.683Z,102509.78
2019-03-20T10:21:06.142Z,102504.00
2019-03-20T10:23:37.592Z,102505.91
2019-03-20T10:26:07.022Z,102505.72
2019-03-20T10:28:36.602Z,102503.42
2019-03-20T10:31:06.159Z,102502.93
2019-03-20T10:33:35.768Z,102502.06
2019-03-20T10:36:05.497Z,102499.73
2019-03-20T10:38:34.988Z,102499.25
2019-03-20T10:41:04.426Z,102503.48
2019-03-20T10:43:33.983Z,102510.48
2019-03-20T10:46:03.508Z,102506.12
2019-03-20T10:48:33.088Z,102510.69
2019-03-20T10:51:02.680Z,102508.16
2019-03-20T10:53:32.147Z,102514.84
2019-03-20T10:56:01.649Z,102519.45
2019-03-20T10:58:31.198Z,102521.78
2019-03-20T11:01:00.912Z,102520.03
2019-03-20T11:03:30.359Z,102528.25
2019-03-20T11:05:59.818Z,102522.56
2019-03-20T11:08:29.239Z,102527.47
2019-03-20T11:10:58.763Z,102514.63
2019-03-20T11:13:28.275Z,102519.22
2019-03-20T11:15:57.727Z,102512.50
2019-03-20T11:18:27.189Z,102518.88
2019-03-20T11:20:56.605Z,102523.33
2019-03-20T11:23:26.348Z,102519.84
2019-03-20T11:25:55.848Z,102525.09
2019-03-20T11:28:25.318Z,102519.02
2019-03-20T11:30:54.807Z,102529.70
2019-03-20T11:33:24.341Z,102527.63
2019-03-20T11:35:53.792Z,102529.55
2019-03-20T11:38:23.310Z,102533.03
2019-03-20T11:40:52.864Z,102522.70
2019-03-20T11:43:22.420Z,102531.91
2019-03-20T11:45:51.892Z,102542.75
2019-03-20T11:48:21.348Z,102552.69
2019-03-20T11:50:50.813Z,102547.49
2019-03-20T11:53:20.232Z,102550.16
2019-03-20T11:55:49.669Z,102556.66
2019-03-20T11:58:19.263Z,102551.79
2019-03-20T12:00:48.809Z,102549.19
2019-03-20T12:03:18.224Z,102545.37
2019-03-20T12:05:47.707Z,102547.64
2019-03-20T12:08:17.167Z,102547.84
2019-03-20T12:10:46.721Z,102558.16
2019-03-20T12:13:16.201Z,102555.92
2019-03-20T12:15:45.738Z,102553.73
2019-03-20T12:18:15.189Z,102546.98
2019-03-20T12:20:44.708Z,102549.69
2019-03-20T12:23:14.119Z,102545.13
2019-03-20T12:25:43.662Z,102544.15
2019-03-20T12:28:13.173Z,102535.92
2019-03-20T12:30:42.729Z,102538.54
2019-03-20T12:33:21.406Z,102544.70
2019-03-20T12:35:50.918Z,102546.37
2019-03-20T12:38:20.417Z,102545.36
2019-03-20T12:40:49.893Z,102536.54
2019-03-20T12:43:19.299Z,102541.48
2019-03-20T12:45:48.788Z,102541.51
2019-03-20T12:48:18.251Z,102540.83
2019-03-20T12:50:47.783Z,102542.31
2019-03-20T12:53:17.410Z,102546.13
2019-03-20T12:55:46.832Z,102545.75
2019-03-20T12:58:16.305Z,102552.45
2019-03-20T13:05:43.651Z,102565.09
2019-03-20T13:08:13.189Z,102558.84
2019-03-20T13:10:42.719Z,102559.81
2019-03-20T13:13:12.543Z,102555.00
2019-03-20T13:15:42.011Z,102564.31
2019-03-20T13:18:11.486Z,102559.06
2019-03-20T13:20:40.999Z,102563.36
2019-03-20T13:23:13.285Z,102571.61
2019-03-20T13:25:42.821Z,102570.75
2019-03-20T13:28:12.242Z,102574.22
2019-03-20T13:30:44.888Z,102568.52
2019-03-20T13:33:24.955Z,102570.05
2019-03-20T13:35:45.547Z,102564.77
2019-03-20T13:38:15.062Z,102565.23
2019-03-20T13:40:44.602Z,102561.19
2019-03-20T13:43:14.204Z,102557.43
2019-03-20T13:45:44.002Z,102557.94
2019-03-20T13:48:14.425Z,102567.05
2019-03-20T13:50:43.757Z,102563.58
2019-03-20T13:53:15.320Z,102562.94
2019-03-20T13:55:44.617Z,102554.44
2019-03-20T13:58:14.213Z,102562.31
2019-03-20T14:00:43.794Z,102561.09
2019-03-20T14:03:13.424Z,102565.44
2019-03-20T14:05:42.934Z,102557.08
2019-03-20T14:08:12.487Z,102562.02
2019-03-20T14:10:50.081Z,102562.15
2019-03-20T14:13:13.305Z,102564.50
2019-03-20T14:15:42.722Z,102562.15
2019-03-20T14:18:12.226Z,102557.44
2019-03-20T14:20:41.763Z,102554.47
2019-03-20T14:23:11.146Z,102554.18
2019-03-20T14:25:40.533Z,102556.70
2019-03-20T14:28:09.997Z,102562.66
2019-03-20T14:30:39.478Z,102566.76
2019-03-20T14:33:08.917Z,102564.88
2019-03-20T14:35:38.521Z,102557.68
2019-03-20T14:38:07.951Z,102556.98
2019-03-20T14:40:37.992Z,102559.29
2019-03-20T14:43:07.582Z,102556.66
2019-03-20T14:45:37.080Z,102560.09
2019-03-20T14:48:06.736Z,102560.84
2019-03-20T14:50:36.705Z,102555.63
2019-03-20T14:53:06.316Z,102553.31
2019-03-20T14:55:35.774Z,102555.83
2019-03-20T14:58:05.550Z,102559.24
2019-03-20T15:00:35.243Z,102556.95
2019-03-20T15:03:04.880Z,102550.59
2019-03-20T15:05:34.369Z,102553.39
2019-03-20T15:08:04.095Z,102552.52
2019-03-20T15:10:33.532Z,102551.40
2019-03-20T15:13:03.117Z,102550.33
2019-03-20T15:15:38.749Z,102549.94
2019-03-20T15:18:08.207Z,102548.17
2019-03-20T15:20:37.665Z,102547.64
2019-03-20T15:23:07.261Z,102549.27
2019-03-20T15:25:36.981Z,102543.55
2019-03-20T15:28:06.485Z,102547.84
2019-03-20T15:30:36.042Z,102538.59
2019-03-20T15:33:05.646Z,102540.61
2019-03-20T15:35:35.206Z,102540.77
2019-03-20T15:38:04.606Z,102527.50
2019-03-20T15:40:34.067Z,102528.59
2019-03-20T15:43:03.544Z,102529.13
2019-03-20T15:45:33.043Z,102520.43
2019-03-20T15:48:02.615Z,102525.53
2019-03-20T15:50:32.024Z,102525.52
2019-03-20T15:53:01.664Z,102529.13
2019-03-20T15:55:31.779Z,102523.91
2019-03-20T15:58:01.583Z,102522.06
2019-03-20T16:00:31.308Z,102529.30
2019-03-20T16:03:03.814Z,102523.60
2019-03-20T16:05:33.535Z,102517.96
2019-03-20T16:08:03.037Z,102517.87
2019-03-20T16:10:32.862Z,102521.41
2019-03-20T16:13:02.656Z,102526.09
2019-03-20T16:15:32.981Z,102529.06
2019-03-20T16:18:02.916Z,102530.03
2019-03-20T16:20:32.627Z,102526.95
2019-03-20T16:23:02.902Z,102530.83
2019-03-20T16:25:32.682Z,102533.04
2019-03-20T16:28:02.494Z,102534.63
2019-03-20T16:30:32.618Z,102524.64
2019-03-20T16:33:02.601Z,102531.23
2019-03-20T16:35:32.571Z,102529.80
2019-03-20T16:38:02.458Z,102537.81
2019-03-20T16:40:32.263Z,102531.09
2019-03-20T16:43:02.025Z,102543.55
2019-03-20T16:45:31.994Z,102538.03
2019-03-20T16:48:01.990Z,102538.47
2019-03-20T16:50:33.119Z,102547.97
2019-03-20T16:53:03.111Z,102551.23
2019-03-20T16:55:32.918Z,102547.71
2019-03-20T16:58:02.662Z,102546.36
2019-03-20T17:00:32.480Z,102539.03
2019-03-20T17:03:02.302Z,102545.41
2019-03-20T17:05:32.248Z,102550.62
2019-03-20T17:08:02.204Z,102551.78
2019-03-20T17:10:37.986Z,102543.75
2019-03-20T17:13:07.985Z,102546.31
2019-03-20T17:15:37.967Z,102553.91
2019-03-20T17:18:08.137Z,102548.84
2019-03-20T17:20:38.173Z,102544.16
2019-03-20T17:23:08.183Z,102543.72
2019-03-20T17:25:38.212Z,102551.93
2019-03-20T17:28:08.227Z,102544.55
2019-03-20T17:30:38.366Z,102539.52
2019-03-20T17:33:08.211Z,102538.89
2019-03-20T17:35:38.239Z,102546.58
2019-03-20T17:38:08.311Z,102545.92
2019-03-20T17:40:38.311Z,102543.59
2019-03-20T17:43:08.141Z,102546.80
2019-03-20T17:45:40.143Z,102542.59
2019-03-20T17:48:10.078Z,102546.34
2019-03-20T17:50:39.784Z,102554.91
2019-03-20T17:53:09.735Z,102552.04
2019-03-20T17:55:39.702Z,102553.73
2019-03-20T17:58:09.442Z,102557.45
2019-03-20T18:00:41.796Z,102555.58
2019-03-20T18:03:11.910Z,102560.11
2019-03-20T18:05:41.866Z,102557.12
2019-03-20T18:08:11.924Z,102553.22
2019-03-20T18:10:44.664Z,102555.76
2019-03-20T18:13:14.623Z,102557.45
2019-03-20T18:15:45.657Z,102565.83
2019-03-20T18:18:15.615Z,102569.20
2019-03-20T18:20:45.581Z,102568.34
2019-03-20T18:23:15.431Z,102584.62
2019-03-20T18:25:45.363Z,102583.28
2019-03-20T18:28:15.361Z,102586.64
2019-03-20T18:30:45.284Z,102589.97
2019-03-20T18:33:15.518Z,102587.12
2019-03-20T18:35:45.458Z,102592.80
2019-03-20T18:38:15.358Z,102594.30
2019-03-20T18:40:45.409Z,102598.97
2019-03-20T18:43:15.354Z,102601.62
2019-03-20T18:45:45.322Z,102607.02
2019-03-20T18:48:15.359Z,102611.39
2019-03-20T18:50:45.414Z,102602.00
2019-03-20T18:53:15.396Z,102602.70
2019-03-20T18:55:45.468Z,102610.06
2019-03-20T18:58:16.026Z,102607.38
2019-03-20T19:00:47.291Z,102604.03
2019-03-20T19:03:17.380Z,102604.53
2019-03-20T19:05:59.792Z,102612.08
2019-03-20T19:08:29.935Z,102615.75
2019-03-20T19:10:59.832Z,102616.91
2019-03-20T19:13:29.988Z,102620.61
2019-03-20T19:16:00.024Z,102619.30
2019-03-20T19:18:29.843Z,102621.80
2019-03-20T19:20:59.878Z,102616.12
2019-03-20T19:23:29.901Z,102619.30
2019-03-20T19:25:59.766Z,102621.48
2019-03-20T19:28:29.718Z,102621.48
2019-03-20T19:30:59.776Z,102626.17
2019-03-20T19:33:29.868Z,102626.81
2019-03-20T19:35:59.925Z,102623.14
2019-03-20T19:38:34.806Z,102626.47
2019-03-20T19:41:01.622Z,102627.98
2019-03-20T19:43:31.465Z,102630.17
2019-03-20T19:46:02.455Z,102625.66
2019-03-20T19:48:32.515Z,102629.85
2019-03-20T19:51:02.590Z,102622.97
2019-03-20T19:53:32.569Z,102629.84
2019-03-20T19:56:02.906Z,102628.16
2019-03-20T19:58:32.753Z,102622.97
2019-03-20T20:01:02.823Z,102626.98
2019-03-20T20:03:32.779Z,102631.68
2019-03-20T20:06:02.537Z,102622.97
2019-03-20T20:08:32.664Z,102624.81
2019-03-20T20:11:02.642Z,102632.17
2019-03-20T20:13:32.638Z,102630.69
2019-03-20T20:16:02.410Z,102623.81
2019-03-20T20:18:32.237Z,102619.11
2019-03-20T20:21:02.062Z,102615.61
2019-03-20T20:23:32.212Z,102619.98
2019-03-20T20:26:02.248Z,102622.98
2019-03-20T20:28:32.112Z,102623.17
2019-03-20T20:31:01.944Z,102624.36
2019-03-20T20:33:31.798Z,102629.55
2019-03-20T20:36:01.859Z,102635.58
2019-03-20T20:38:31.733Z,102631.90
2019-03-20T20:41:02.218Z,102629.88
2019-03-20T20:43:32.291Z,102631.57
2019-03-20T20:46:02.373Z,102639.62
2019-03-20T20:48:32.298Z,102636.94
2019-03-20T20:51:02.211Z,102638.26
2019-03-20T20:53:32.144Z,102635.25
2019-03-20T20:56:02.056Z,102639.42
2019-03-20T20:58:32.142Z,102640.63
2019-03-20T21:01:02.382Z,102640.63
2019-03-20T21:03:32.182Z,102640.30
2019-03-20T21:06:01.931Z,102640.97
2019-03-20T21:08:31.813Z,102637.93
2019-03-20T21:11:01.616Z,102633.92
2019-03-20T21:13:31.645Z,102634.25
2019-03-20T21:16:03.499Z,102629.20
2019-03-20T21:19:17.967Z,102629.39
2019-03-20T21:22:21.588Z,102630.91
2019-03-20T21:24:54.206Z,102624.50
2019-03-20T21:28:02.638Z,102628.89
2019-03-20T21:31:22.323Z,102626.70
2019-03-20T21:34:28.589Z,102627.69
2019-03-20T21:37:29.270Z,102619.99
2019-03-20T21:39:59.532Z,102616.29
2019-03-20T21:43:07.171Z,102624.86
2019-03-20T21:46:09.105Z,102635.06
2019-03-20T21:48:39.254Z,102638.25
2019-03-20T21:51:16.270Z,102640.27
2019-03-20T21:54:39.630Z,102631.03
2019-03-20T21:57:21.816Z,102628.03
2019-03-20T22:00:41.588Z,102631.18
2019-03-20T22:03:11.690Z,102633.55
2019-03-20T22:06:33.116Z,102636.55
2019-03-20T22:09:37.145Z,102636.90
2019-03-20T22:12:26.581Z,102637.22
2019-03-20T22:15:01.968Z,102642.58
2019-03-20T22:18:14.614Z,102643.92
2019-03-20T22:21:06.349Z,102644.59
2019-03-20T22:24:17.949Z,102638.23
2019-03-20T22:27:22.720Z,102643.92
2019-03-20T22:29:52.687Z,102649.28
2019-03-20T22:33:30.625Z,102634.54
2019-03-20T22:36:19.285Z,102633.87
2019-03-20T22:39:40.232Z,102637.72
2019-03-20T22:42:39.906Z,102639.87
2019-03-20T22:45:35.157Z,102635.88
2019-03-20T22:48:49.003Z,102640.22
2019-03-20T22:51:52.268Z,102636.90
2019-03-20T22:55:14.165Z,102643.95
2019-03-20T22:58:23.287Z,102647.13
2019-03-20T23:00:54.394Z,102645.27
2019-03-20T23:03:37.597Z,102643.25
2019-03-20T23:06:07.797Z,102646.25
2019-03-20T23:08:37.781Z,102641.74
2019-03-20T23:11:08.241Z,102641.22
2019-03-20T23:13:41.811Z,102641.39
2019-03-20T23:16:11.390Z,102637.52
2019-03-20T23:18:41.435Z,102646.23
2019-03-20T23:21:11.455Z,102651.23
2019-03-20T23:23:42.262Z,102645.88
2019-03-20T23:26:12.413Z,102644.54
2019-03-20T23:28:42.653Z,102646.05
2019-03-20T23:31:12.614Z,102642.53
2019-03-20T23:33:42.578Z,102650.08
2019-03-20T23:36:12.664Z,102645.21
2019-03-20T23:38:42.587Z,102647.54
2019-03-20T23:41:12.541Z,102642.67
2019-03-20T23:43:52.395Z,102642.00
2019-03-20T23:46:14.461Z,102646.52
2019-03-20T23:49:03.375Z,102640.31
2019-03-20T23:51:33.660Z,102650.86
2019-03-20T23:54:03.858Z,102656.21
2019-03-20T23:56:36.193Z,102654.52
2019-03-20T23:59:07.550Z,102658.54
